Time;durP1;ratioP1;P1;durP2;ratioP2;P2;SDS_P1;SDS_P2;PMS_P1;PMS_P2;Temp;Humidity;BMP_temperature;BMP_pressure;BME280_temperature;BME280_humidity;BME280_pressure;Samples;Min_cycle;Max_cycle;Signal;HPM_P1;HPM_P2
2022/06/16 00:00:19;;;;;;;2.90;1.67;;;15.70;92.20;;;;;;5045605;28;20213;-75
2022/06/16 00:02:52;;;;;;;2.53;1.60;;;15.90;92.20;;;;;;5045994;28;20182;-75
2022/06/16 00:05:22;;;;;;;2.57;1.40;;;15.80;91.80;;;;;;5046767;28;20422;-76
2022/06/16 00:07:47;;;;;;;2.27;1.30;;;15.80;91.90;;;;;;5045996;28;20794;-75
2022/06/16 00:10:14;;;;;;;2.73;1.40;;;15.80;92.00;;;;;;5046722;28;20420;-75
2022/06/16 00:12:40;;;;;;;3.40;1.80;;;15.80;91.90;;;;;;5046097;28;20188;-76
2022/06/16 00:15:09;;;;;;;2.30;1.20;;;15.80;91.70;;;;;;5065336;28;20427;-75
2022/06/16 00:17:35;;;;;;;10.30;2.43;;;15.90;91.90;;;;;;5066335;28;20415;-75
2022/06/16 00:20:04;;;;;;;3.60;1.97;;;15.80;92.30;;;;;;5066421;28;20470;-75
2022/06/16 00:22:31;;;;;;;2.60;1.20;;;15.80;92.50;;;;;;5067958;28;20177;-76
2022/06/16 00:24:56;;;;;;;3.83;1.67;;;15.70;92.60;;;;;;5070661;28;20926;-75
2022/06/16 00:27:22;;;;;;;2.63;1.60;;;15.70;92.70;;;;;;5070653;28;20426;-76
2022/06/16 00:29:48;;;;;;;5.10;1.83;;;15.60;92.60;;;;;;5070996;28;20185;-75
2022/06/16 00:32:13;;;;;;;3.43;1.80;;;15.60;93.00;;;;;;5070160;28;20227;-75
2022/06/16 00:34:39;;;;;;;3.30;1.80;;;15.60;93.20;;;;;;5070393;28;20240;-77
2022/06/16 00:37:05;;;;;;;3.83;1.70;;;15.40;93.30;;;;;;5070230;28;20246;-75
2022/06/16 00:39:30;;;;;;;4.23;1.70;;;15.40;93.70;;;;;;5070386;28;20351;-76
2022/06/16 00:42:05;;;;;;;4.83;1.30;;;15.40;93.90;;;;;;5069969;28;20216;-75
2022/06/16 00:44:30;;;;;;;5.17;2.10;;;15.40;94.10;;;;;;5069099;28;20245;-75
2022/06/16 00:46:56;;;;;;;3.27;1.90;;;15.40;93.70;;;;;;5070062;28;20407;-76
2022/06/16 00:49:22;;;;;;;4.77;2.03;;;15.40;93.60;;;;;;5092605;28;20215;-80
2022/06/16 00:51:52;;;;;;;2.20;1.50;;;15.50;93.90;;;;;;5098260;28;20185;-78
2022/06/16 00:54:33;;;;;;;2.93;1.67;;;15.50;94.10;;;;;;5100574;28;20427;-79
2022/06/16 00:57:03;;;;;;;3.20;1.97;;;15.40;94.30;;;;;;5100817;28;20399;-75
2022/06/16 00:59:29;;;;;;;7.63;2.20;;;15.30;94.10;;;;;;5100492;28;20442;-75
2022/06/16 01:01:55;;;;;;;3.13;1.50;;;15.30;94.20;;;;;;5100435;28;20419;-77
2022/06/16 01:07:11;;;;;;;3.83;1.87;;;15.20;94.30;;;;;;5073128;28;20395;-76
2022/06/16 01:09:41;;;;;;;4.17;1.57;;;15.10;94.20;;;;;;5070118;28;20399;-76
2022/06/16 01:15:45;;;;;;;5.43;2.40;;;15.00;94.90;;;;;;5069812;28;20433;-76
2022/06/16 01:18:21;;;;;;;3.40;1.87;;;14.90;94.90;;;;;;5069507;28;20411;-76
2022/06/16 01:20:55;;;;;;;2.80;1.80;;;14.90;94.80;;;;;;5068198;28;20462;-76
2022/06/16 01:24:09;;;;;;;4.00;2.00;;;14.90;95.00;;;;;;5069641;28;21077;-76
2022/06/16 01:26:50;;;;;;;2.93;1.73;;;14.90;95.00;;;;;;5056900;28;20836;-75
2022/06/16 01:29:34;;;;;;;4.60;1.73;;;14.90;95.10;;;;;;5069409;28;20469;-75
2022/06/16 01:32:09;;;;;;;6.07;2.03;;;14.90;95.50;;;;;;5068998;28;20411;-75
2022/06/16 01:34:52;;;;;;;5.80;1.80;;;14.80;95.50;;;;;;5067882;28;20522;-76
2022/06/16 01:37:43;;;;;;;5.83;2.27;;;14.80;95.50;;;;;;5067283;28;20423;-75
2022/06/16 01:40:34;;;;;;;3.23;1.60;;;14.80;95.00;;;;;;5067673;28;20463;-75
2022/06/16 01:43:15;;;;;;;2.70;1.47;;;14.90;94.30;;;;;;5067640;28;20514;-76
2022/06/16 01:45:55;;;;;;;4.83;1.77;;;14.90;94.50;;;;;;5069158;28;20422;-75
2022/06/16 01:48:22;;;;;;;5.30;1.87;;;14.80;94.90;;;;;;5068900;28;20998;-75
2022/06/16 01:50:56;;;;;;;3.27;1.60;;;14.70;94.90;;;;;;5069222;28;20431;-76
2022/06/16 01:53:27;;;;;;;4.53;1.83;;;14.70;95.10;;;;;;5059843;28;20463;-76
2022/06/16 01:56:01;;;;;;;3.70;2.10;;;14.60;95.50;;;;;;5052845;28;20423;-76
2022/06/16 01:58:34;;;;;;;4.40;2.27;;;14.50;95.30;;;;;;5048919;28;20845;-75
2022/06/16 02:01:05;;;;;;;25.80;2.37;;;14.40;95.80;;;;;;5070593;28;20605;-76
2022/06/16 02:03:35;;;;;;;4.67;1.90;;;14.40;96.20;;;;;;5066183;28;20440;-78
2022/06/16 02:06:18;;;;;;;2.90;1.60;;;14.40;96.20;;;;;;5085029;28;20426;-77
2022/06/16 02:08:50;;;;;;;2.97;1.50;;;14.40;96.40;;;;;;5083350;28;20427;-75
2022/06/16 02:11:30;;;;;;;6.33;2.23;;;14.30;96.40;;;;;;5083281;28;20423;-78
2022/06/16 02:14:06;;;;;;;2.63;1.40;;;14.30;96.60;;;;;;5068633;28;20546;-75
2022/06/16 02:16:34;;;;;;;5.07;1.70;;;14.30;96.10;;;;;;5067164;28;20454;-76
2022/06/16 02:19:04;;;;;;;2.07;1.23;;;14.40;95.70;;;;;;5068333;28;20430;-75
2022/06/16 02:21:37;;;;;;;3.93;2.00;;;14.40;95.50;;;;;;5067153;28;21206;-75
2022/06/16 02:24:04;;;;;;;6.70;2.40;;;14.40;95.40;;;;;;5068164;28;20453;-75
2022/06/16 02:26:31;;;;;;;4.07;1.60;;;14.40;95.70;;;;;;5067948;28;20554;-75
2022/06/16 02:29:00;;;;;;;3.27;1.60;;;14.40;95.30;;;;;;5068179;28;20415;-75
2022/06/16 02:31:39;;;;;;;4.40;1.70;;;14.50;95.50;;;;;;5068020;28;21262;-71
2022/06/16 02:34:30;;;;;;;12.57;1.77;;;14.40;95.60;;;;;;5066565;28;20447;-75
2022/06/16 02:37:24;;;;;;;4.03;1.80;;;14.40;96.10;;;;;;5067092;28;20527;-75
2022/06/16 02:39:55;;;;;;;5.30;1.90;;;14.30;96.30;;;;;;5068066;28;20520;-75
2022/06/16 02:42:37;;;;;;;3.90;2.40;;;14.30;97.10;;;;;;5067685;28;20553;-75
2022/06/16 02:45:12;;;;;;;3.27;1.70;;;14.20;96.90;;;;;;5067096;28;20404;-75
2022/06/16 02:47:56;;;;;;;8.10;2.43;;;14.20;96.50;;;;;;5067361;28;20421;-75
2022/06/16 02:50:28;;;;;;;3.87;1.90;;;14.20;96.50;;;;;;5067863;28;20903;-76
2022/06/16 02:53:12;;;;;;;3.87;2.00;;;14.20;95.70;;;;;;5053139;28;20427;-75
2022/06/16 02:55:42;;;;;;;4.80;2.43;;;14.20;95.50;;;;;;5046392;28;20509;-75
2022/06/16 02:58:11;;;;;;;4.43;2.23;;;14.20;95.50;;;;;;5047648;28;20442;-75
2022/06/16 03:00:41;;;;;;;7.20;2.67;;;14.20;95.50;;;;;;5047743;28;20978;-77
2022/06/16 03:03:29;;;;;;;6.50;1.93;;;14.20;95.80;;;;;;5047088;28;20812;-76
2022/06/16 03:05:57;;;;;;;3.50;1.47;;;14.30;95.30;;;;;;5047111;28;20493;-77
2022/06/16 03:08:26;;;;;;;4.07;1.70;;;14.30;95.40;;;;;;5045711;28;20515;-78
2022/06/16 03:10:53;;;;;;;5.43;2.00;;;14.30;95.50;;;;;;5047574;28;20435;-76
2022/06/16 03:13:25;;;;;;;10.70;2.00;;;14.30;95.80;;;;;;5047385;28;20462;-75
2022/06/16 03:15:53;;;;;;;3.20;1.53;;;14.20;96.00;;;;;;5047201;28;20427;-76
2022/06/16 03:18:20;;;;;;;21.50;2.70;;;14.20;96.30;;;;;;5046880;28;20429;-75
2022/06/16 03:20:47;;;;;;;3.70;1.73;;;14.20;96.50;;;;;;5046636;28;21002;-76
2022/06/16 03:23:13;;;;;;;9.63;2.20;;;14.20;96.10;;;;;;5046586;28;20935;-76
2022/06/16 03:25:40;;;;;;;2.73;1.60;;;14.20;96.60;;;;;;5047137;28;20412;-76
2022/06/16 03:28:07;;;;;;;3.30;2.20;;;14.20;96.90;;;;;;5046959;28;20177;-76
2022/06/16 03:30:33;;;;;;;3.53;1.80;;;14.20;96.70;;;;;;5047216;28;20506;-75
2022/06/16 03:33:00;;;;;;;3.07;1.90;;;14.20;95.90;;;;;;5046702;28;20959;-75
2022/06/16 03:35:26;;;;;;;7.20;1.90;;;14.30;95.70;;;;;;5065385;28;20276;-76
2022/06/16 03:37:52;;;;;;;5.30;2.10;;;14.40;95.50;;;;;;5065165;28;20431;-76
2022/06/16 03:40:18;;;;;;;10.67;2.90;;;14.40;95.40;;;;;;5067015;28;20985;-75
2022/06/16 03:42:44;;;;;;;4.70;2.30;;;14.40;95.50;;;;;;5065730;28;20189;-74
2022/06/16 03:45:10;;;;;;;2.50;1.57;;;14.50;94.70;;;;;;5067059;28;20420;-76
2022/06/16 03:47:35;;;;;;;3.23;1.60;;;14.60;94.30;;;;;;5066966;28;20544;-76
2022/06/16 03:50:02;;;;;;;2.90;1.47;;;14.70;94.10;;;;;;5067078;28;20431;-75
2022/06/16 03:52:27;;;;;;;20.53;2.23;;;14.90;94.00;;;;;;5055324;28;20185;-76
2022/06/16 03:54:53;;;;;;;4.63;1.70;;;15.00;93.40;;;;;;5062650;28;20523;-74
2022/06/16 03:57:20;;;;;;;2.80;1.57;;;15.10;93.30;;;;;;5066027;28;20188;-77
2022/06/16 03:59:45;;;;;;;2.60;1.63;;;15.20;93.00;;;;;;5066671;28;20450;-77
2022/06/16 04:02:11;;;;;;;4.43;2.17;;;15.30;93.30;;;;;;5066087;28;20434;-76
2022/06/16 04:04:36;;;;;;;6.10;1.97;;;15.40;92.90;;;;;;5066129;28;20204;-76
2022/06/16 04:07:02;;;;;;;3.20;1.70;;;15.50;91.90;;;;;;5066254;28;20185;-76
2022/06/16 04:09:28;;;;;;;3.50;1.37;;;15.60;91.90;;;;;;5064702;28;20177;-76
2022/06/16 04:11:54;;;;;;;8.50;1.73;;;15.70;92.30;;;;;;5065854;28;20660;-77
2022/06/16 04:14:19;;;;;;;3.20;1.50;;;15.70;91.40;;;;;;5066642;28;20200;-76
2022/06/16 04:16:49;;;;;;;2.97;1.60;;;15.90;91.20;;;;;;5066517;28;20276;-77
2022/06/16 04:19:17;;;;;;;3.50;1.83;;;16.10;91.00;;;;;;5066556;28;20549;-77
2022/06/16 04:21:47;;;;;;;5.73;2.07;;;16.20;90.20;;;;;;5065874;28;20416;-76
2022/06/16 04:24:14;;;;;;;4.43;2.10;;;16.40;91.40;;;;;;5065319;28;20443;-76
2022/06/16 04:26:40;;;;;;;7.53;1.50;;;16.50;90.00;;;;;;5065921;28;20411;-76
2022/06/16 04:29:07;;;;;;;4.53;2.03;;;16.60;89.40;;;;;;5065246;28;20420;-77
2022/06/16 04:31:34;;;;;;;3.33;1.70;;;16.60;90.10;;;;;;5066467;28;20427;-77
2022/06/16 04:34:00;;;;;;;4.30;1.70;;;16.70;90.70;;;;;;5066417;28;20625;-76
2022/06/16 04:36:26;;;;;;;4.07;2.17;;;16.70;90.70;;;;;;5066469;28;20514;-76
2022/06/16 04:38:53;;;;;;;2.30;1.43;;;16.80;90.40;;;;;;5066830;28;20910;-76
2022/06/16 04:41:19;;;;;;;7.60;2.47;;;16.80;89.00;;;;;;5067757;28;20205;-76
2022/06/16 04:43:44;;;;;;;4.23;1.70;;;16.90;89.60;;;;;;5067540;28;20427;-77
2022/06/16 04:46:13;;;;;;;5.23;1.80;;;17.10;87.00;;;;;;5068481;28;20502;-77
2022/06/16 04:48:39;;;;;;;3.90;2.00;;;17.20;89.70;;;;;;5066226;28;20782;-79
2022/06/16 04:51:04;;;;;;;3.90;2.53;;;17.20;89.40;;;;;;5066091;28;20445;-77
2022/06/16 04:53:33;;;;;;;4.23;1.77;;;17.20;90.40;;;;;;5047397;28;20206;-76
2022/06/16 04:56:01;;;;;;;3.87;1.70;;;17.20;90.00;;;;;;5046075;28;20653;-77
2022/06/16 04:58:28;;;;;;;8.93;2.03;;;17.20;90.80;;;;;;5046235;28;20420;-76
2022/06/16 05:00:54;;;;;;;3.80;1.63;;;17.30;90.20;;;;;;5046360;28;20564;-77
2022/06/16 05:03:22;;;;;;;3.63;2.00;;;17.40;90.20;;;;;;5047101;28;20463;-76
2022/06/16 05:05:49;;;;;;;2.40;1.57;;;17.40;88.90;;;;;;5065689;28;20411;-76
2022/06/16 05:08:17;;;;;;;3.30;2.00;;;17.40;90.70;;;;;;5066000;28;21000;-76
2022/06/16 05:10:44;;;;;;;3.20;1.87;;;17.50;90.30;;;;;;5069852;28;20795;-74
2022/06/16 05:13:10;;;;;;;3.77;1.83;;;17.50;88.90;;;;;;5069648;28;20805;-75
2022/06/16 05:15:36;;;;;;;3.60;1.90;;;17.50;90.60;;;;;;5071163;28;20419;-78
2022/06/16 05:18:03;;;;;;;4.63;2.20;;;17.50;90.60;;;;;;5069607;28;20187;-76
2022/06/16 05:20:28;;;;;;;4.17;2.03;;;17.50;90.10;;;;;;5069490;28;20213;-76
2022/06/16 05:22:54;;;;;;;4.20;2.17;;;17.40;91.10;;;;;;5069131;28;20411;-77
2022/06/16 05:25:20;;;;;;;4.80;2.27;;;17.40;91.70;;;;;;5068305;28;20173;-75
2022/06/16 05:27:45;;;;;;;3.23;1.93;;;17.40;91.70;;;;;;5069534;28;20652;-76
2022/06/16 05:30:11;;;;;;;2.83;1.50;;;17.40;92.20;;;;;;5069509;28;20181;-76
2022/06/16 05:32:37;;;;;;;3.40;1.70;;;17.50;92.40;;;;;;5069280;28;20290;-76
2022/06/16 05:35:03;;;;;;;3.97;2.17;;;17.50;92.50;;;;;;5068796;28;20196;-75
2022/06/16 05:37:31;;;;;;;12.60;2.03;;;17.50;92.00;;;;;;5069260;28;20185;-77
2022/06/16 05:39:57;;;;;;;9.90;2.17;;;17.60;91.20;;;;;;5069289;28;20578;-78
2022/06/16 05:42:22;;;;;;;2.87;1.37;;;17.70;91.00;;;;;;5068821;28;20569;-77
2022/06/16 05:44:48;;;;;;;5.37;2.00;;;17.80;90.20;;;;;;5068392;28;20196;-76
2022/06/16 05:47:14;;;;;;;5.27;2.37;;;17.90;91.40;;;;;;5068940;28;20188;-76
2022/06/16 05:49:42;;;;;;;3.10;1.50;;;17.90;91.10;;;;;;5068751;28;20216;-76
2022/06/16 05:52:14;;;;;;;3.77;2.30;;;18.00;92.00;;;;;;5061181;28;20668;-77
2022/06/16 05:54:40;;;;;;;4.57;2.30;;;18.10;91.50;;;;;;5056018;28;20471;-76
2022/06/16 05:57:08;;;;;;;5.60;2.10;;;18.10;91.80;;;;;;5068331;28;20529;-76
2022/06/16 05:59:34;;;;;;;2.97;1.70;;;18.20;91.80;;;;;;5068706;28;21076;-76
2022/06/16 06:01:59;;;;;;;3.20;2.03;;;18.30;91.50;;;;;;5067404;28;20526;-76
2022/06/16 06:04:25;;;;;;;3.60;2.00;;;18.40;91.20;;;;;;5068468;28;20215;-75
2022/06/16 06:06:50;;;;;;;4.20;2.33;;;18.60;89.30;;;;;;5068716;28;20177;-75
2022/06/16 06:17:30;;;;;;;3.50;1.83;;;18.80;88.50;;;;;;5068428;28;20453;-76
2022/06/16 06:19:55;;;;;;;2.97;1.77;;;18.80;90.50;;;;;;5067680;28;21122;-77
2022/06/16 06:22:25;;;;;;;5.03;2.20;;;18.80;90.50;;;;;;5067921;28;20177;-75
2022/06/16 06:24:57;;;;;;;4.13;1.80;;;18.80;91.00;;;;;;5068693;28;20354;-77
2022/06/16 06:27:32;;;;;;;4.20;2.00;;;18.80;91.10;;;;;;5066815;28;20499;-77
2022/06/16 06:29:58;;;;;;;11.50;2.20;;;18.90;91.10;;;;;;5068780;28;20786;-76
2022/06/16 06:32:25;;;;;;;3.17;1.83;;;19.00;91.70;;;;;;5068145;28;20424;-76
2022/06/16 06:34:51;;;;;;;3.47;2.10;;;19.10;90.80;;;;;;5067706;28;20443;-78
2022/06/16 06:37:19;;;;;;;6.20;2.10;;;19.30;91.00;;;;;;5067956;28;20418;-76
2022/06/16 06:39:44;;;;;;;3.83;2.10;;;19.50;90.80;;;;;;5066987;28;20463;-75
2022/06/16 06:42:10;;;;;;;3.60;2.10;;;19.70;90.30;;;;;;5067946;28;20422;-75
2022/06/16 06:44:36;;;;;;;4.00;1.93;;;20.00;88.20;;;;;;5066207;28;20197;-76
2022/06/16 06:47:02;;;;;;;2.70;1.50;;;20.20;87.20;;;;;;5067781;28;20193;-76
2022/06/16 06:49:28;;;;;;;3.40;1.70;;;20.50;85.10;;;;;;5067342;28;20964;-75
2022/06/16 06:51:54;;;;;;;5.30;2.20;;;20.80;84.90;;;;;;5062045;28;20428;-77
2022/06/16 06:54:21;;;;;;;3.27;1.73;;;21.20;85.00;;;;;;5046532;28;20260;-78
2022/06/16 06:56:48;;;;;;;4.03;1.93;;;21.40;85.20;;;;;;5047981;28;20182;-76
2022/06/16 06:59:18;;;;;;;3.87;2.10;;;21.60;78.50;;;;;;5047854;28;21207;-77
2022/06/16 07:01:45;;;;;;;2.87;1.70;;;21.80;77.70;;;;;;5047779;28;21064;-76
2022/06/16 07:04:11;;;;;;;3.90;1.93;;;22.00;76.40;;;;;;5054458;28;20496;-77
2022/06/16 07:06:38;;;;;;;3.87;1.77;;;22.10;77.30;;;;;;5065890;28;20427;-77
2022/06/16 07:09:05;;;;;;;5.30;1.90;;;22.20;77.80;;;;;;5068064;28;20181;-77
2022/06/16 07:11:31;;;;;;;3.77;2.17;;;22.20;79.30;;;;;;5067560;28;20484;-77
2022/06/16 07:13:58;;;;;;;9.30;2.40;;;22.20;80.90;;;;;;5066422;28;20932;-77
2022/06/16 07:16:24;;;;;;;6.70;1.90;;;22.30;83.10;;;;;;5067894;28;20189;-76
2022/06/16 07:18:49;;;;;;;5.00;2.07;;;22.40;85.80;;;;;;5067627;28;20471;-76
2022/06/16 07:21:16;;;;;;;2.23;1.43;;;22.40;86.20;;;;;;5067654;28;20307;-76
2022/06/16 07:23:42;;;;;;;2.83;1.57;;;22.40;85.50;;;;;;5067007;28;20208;-76
2022/06/16 07:26:09;;;;;;;2.83;1.60;;;22.50;85.00;;;;;;5066021;28;20421;-76
2022/06/16 07:28:35;;;;;;;3.77;2.00;;;22.60;82.10;;;;;;5066889;28;20918;-77
2022/06/16 07:31:00;;;;;;;7.33;2.20;;;22.60;81.30;;;;;;5067353;28;20411;-77
2022/06/16 07:33:26;;;;;;;3.70;1.80;;;22.70;81.50;;;;;;5066613;28;20218;-77
2022/06/16 07:35:53;;;;;;;3.00;1.40;;;23.00;81.80;;;;;;5066949;28;20556;-78
2022/06/16 07:38:20;;;;;;;6.87;2.57;;;23.70;82.50;;;;;;5067412;28;20180;-76
2022/06/16 07:40:46;;;;;;;3.13;1.83;;;24.70;78.70;;;;;;5066271;28;20477;-77
2022/06/16 07:43:12;;;;;;;3.87;1.90;;;25.00;72.70;;;;;;5065773;28;20434;-80
2022/06/16 07:45:39;;;;;;;4.30;2.03;;;24.90;71.70;;;;;;5067046;28;20185;-78
2022/06/16 07:48:06;;;;;;;4.00;1.57;;;25.00;74.90;;;;;;5067216;28;20270;-77
2022/06/16 07:50:36;;;;;;;8.40;2.10;;;25.20;73.40;;;;;;5072343;28;20169;-79
2022/06/16 07:53:07;;;;;;;2.83;1.70;;;25.10;72.90;;;;;;5060825;28;20523;-77
2022/06/16 07:55:34;;;;;;;3.57;2.07;;;25.00;74.90;;;;;;5058089;28;20196;-78
2022/06/16 07:58:00;;;;;;;5.53;1.90;;;24.90;76.20;;;;;;5072674;28;20245;-78
2022/06/16 08:00:29;;;;;;;5.17;2.33;;;25.20;75.60;;;;;;5074915;28;20490;-76
2022/06/16 08:02:56;;;;;;;4.85;1.92;;;26.20;72.90;;;;;;5073048;28;20169;-78
2022/06/16 08:05:22;;;;;;;7.05;2.28;;;26.60;73.30;;;;;;5097347;28;20169;-77
2022/06/16 08:07:48;;;;;;;3.83;2.00;;;27.50;71.50;;;;;;5095911;28;20211;-80
2022/06/16 08:10:19;;;;;;;4.40;2.28;;;28.30;70.70;;;;;;5094923;28;20160;-82
2022/06/16 08:12:44;;;;;;;2.60;1.55;;;29.20;67.30;;;;;;5095456;28;20160;-78
2022/06/16 08:15:11;;;;;;;5.55;2.15;;;29.40;66.10;;;;;;5096934;28;20223;-76
2022/06/16 08:17:39;;;;;;;6.70;2.30;;;29.40;66.70;;;;;;5097245;28;20172;-80
2022/06/16 08:20:06;;;;;;;8.38;2.40;;;29.60;68.60;;;;;;5097413;28;20199;-76
2022/06/16 08:22:33;;;;;;;10.68;2.85;;;29.70;67.30;;;;;;5082125;28;20271;-77
2022/06/16 08:24:59;;;;;;;2.92;1.92;;;29.80;65.50;;;;;;5068121;28;20196;-78
2022/06/16 08:27:29;;;;;;;3.38;2.35;;;30.20;66.30;;;;;;5066779;28;20219;-77
2022/06/16 08:29:55;;;;;;;4.40;1.85;;;30.50;65.00;;;;;;5066990;28;20952;-77
2022/06/16 08:32:22;;;;;;;6.93;2.30;;;31.10;61.50;;;;;;5066643;28;20267;-78
2022/06/16 08:34:48;;;;;;;5.50;2.55;;;30.50;64.40;;;;;;5065433;28;20231;-78
2022/06/16 08:37:14;;;;;;;17.10;2.42;;;30.40;63.70;;;;;;5066601;28;20208;-77
2022/06/16 08:39:40;;;;;;;3.80;2.00;;;30.00;64.00;;;;;;5066435;28;20191;-77
2022/06/16 08:42:25;;;;;;;3.70;2.38;;;29.80;65.00;;;;;;5065973;28;20184;-78
2022/06/16 08:45:02;;;;;;;9.10;3.08;;;29.90;67.60;;;;;;5068038;28;20200;-79
2022/06/16 08:47:38;;;;;;;7.45;2.92;;;30.00;64.90;;;;;;5070124;28;20223;-77
2022/06/16 08:50:39;;;;;;;5.13;2.72;;;30.10;64.40;;;;;;5071430;28;20263;-78
2022/06/16 08:53:24;;;;;;;6.13;2.63;;;30.10;63.50;;;;;;5054363;28;20208;-78
2022/06/16 08:56:09;;;;;;;4.38;2.00;;;29.40;64.90;;;;;;5049012;28;20196;-77
2022/06/16 08:59:16;;;;;;;6.38;2.85;;;29.60;64.50;;;;;;5050180;28;20188;-77
2022/06/16 09:02:02;;;;;;;4.40;3.03;;;29.50;64.50;;;;;;5048036;28;20237;-78
2022/06/16 09:04:31;;;;;;;4.90;2.42;;;29.30;66.00;;;;;;5060478;28;20227;-78
2022/06/16 09:07:21;;;;;;;5.47;2.60;;;29.60;64.80;;;;;;5069833;28;20173;-79
2022/06/16 09:10:24;;;;;;;4.80;2.47;;;29.50;65.90;;;;;;5069928;28;20168;-78
2022/06/16 09:13:40;;;;;;;11.60;3.15;;;29.20;64.30;;;;;;5069257;28;20237;-77
2022/06/16 09:16:06;;;;;;;4.68;2.35;;;29.30;64.00;;;;;;5068024;28;20176;-78
2022/06/16 09:18:49;;;;;;;4.57;2.45;;;29.00;63.80;;;;;;5069344;28;20717;-78
2022/06/16 09:21:33;;;;;;;5.97;2.17;;;28.90;62.20;;;;;;5068406;28;20287;-80
2022/06/16 09:24:14;;;;;;;6.68;2.60;;;28.70;63.30;;;;;;5070010;28;20253;-77
2022/06/16 09:26:42;;;;;;;5.57;2.97;;;28.50;62.40;;;;;;5069600;28;20164;-77
2022/06/16 09:29:17;;;;;;;3.30;2.22;;;28.50;62.60;;;;;;5068876;28;20576;-80
2022/06/16 09:32:16;;;;;;;10.27;2.13;;;28.60;60.40;;;;;;5067887;28;20171;-78
2022/06/16 09:35:09;;;;;;;3.75;1.88;;;28.40;62.60;;;;;;5069532;28;20711;-78
2022/06/16 09:37:46;;;;;;;2.85;2.20;;;28.40;62.60;;;;;;5069740;28;20175;-77
2022/06/16 09:40:48;;;;;;;4.13;2.30;;;28.70;59.90;;;;;;5067419;28;20579;-77
2022/06/16 09:43:20;;;;;;;5.55;2.00;;;28.50;61.60;;;;;;5067087;28;20196;-78
2022/06/16 09:46:01;;;;;;;3.50;2.17;;;29.00;63.50;;;;;;5069407;28;20663;-79
2022/06/16 09:48:35;;;;;;;2.95;2.08;;;29.40;60.50;;;;;;5064328;28;20569;-78
2022/06/16 09:51:05;;;;;;;19.70;2.70;;;29.30;58.70;;;;;;5069114;28;20242;-79
2022/06/16 09:53:49;;;;;;;9.23;2.75;;;29.00;58.90;;;;;;5049581;28;20201;-77
2022/06/16 09:56:29;;;;;;;6.80;2.58;;;28.70;60.50;;;;;;5054849;28;20187;-77
2022/06/16 09:59:08;;;;;;;3.88;2.13;;;28.50;58.70;;;;;;5052815;28;20178;-78
2022/06/16 10:01:44;;;;;;;3.97;1.95;;;28.10;61.50;;;;;;5046903;28;20292;-75
2022/06/16 10:04:10;;;;;;;2.80;1.80;;;28.20;61.00;;;;;;5056681;28;20581;-78
2022/06/16 10:06:57;;;;;;;4.05;2.13;;;28.30;62.70;;;;;;5068242;28;20176;-79
2022/06/16 10:09:50;;;;;;;3.45;2.25;;;28.40;61.30;;;;;;5067628;28;20287;-78
2022/06/16 10:12:58;;;;;;;4.40;2.20;;;28.70;61.60;;;;;;5068550;28;20176;-80
2022/06/16 10:15:36;;;;;;;3.08;2.05;;;29.00;62.20;;;;;;5068749;28;20180;-78
2022/06/16 10:18:04;;;;;;;5.40;1.77;;;28.70;60.20;;;;;;5068680;28;20179;-80
2022/06/16 10:20:30;;;;;;;3.05;1.90;;;28.60;61.80;;;;;;5068345;28;20702;-80
2022/06/16 10:23:04;;;;;;;5.00;1.75;;;28.70;59.70;;;;;;5068024;28;20233;-80
2022/06/16 10:25:46;;;;;;;8.20;2.10;;;28.30;63.60;;;;;;5067333;28;20168;-79
2022/06/16 10:28:29;;;;;;;3.28;1.80;;;28.00;63.10;;;;;;5068406;28;20157;-78
2022/06/16 10:30:57;;;;;;;5.43;1.57;;;27.60;62.90;;;;;;5071432;28;20200;-77
2022/06/16 10:33:29;;;;;;;5.73;2.17;;;27.60;66.00;;;;;;5072217;28;20208;-80
2022/06/16 10:36:23;;;;;;;4.83;2.27;;;27.60;64.00;;;;;;5070951;28;20219;-78
2022/06/16 10:39:21;;;;;;;3.90;2.07;;;27.50;64.00;;;;;;5065284;28;20196;-78
2022/06/16 10:42:03;;;;;;;10.10;1.87;;;27.40;63.70;;;;;;5067873;28;20239;-77
2022/06/16 10:44:31;;;;;;;6.53;2.20;;;27.20;65.10;;;;;;5066437;28;21388;-77
2022/06/16 10:47:00;;;;;;;3.17;2.00;;;27.20;65.80;;;;;;5066250;28;20476;-77
2022/06/16 10:49:31;;;;;;;3.60;2.37;;;27.40;64.50;;;;;;5067409;28;20457;-78
2022/06/16 10:52:02;;;;;;;3.73;1.80;;;27.30;63.20;;;;;;5061492;28;20560;-78
2022/06/16 10:54:35;;;;;;;7.23;2.00;;;27.20;64.50;;;;;;5046405;28;20442;-77
2022/06/16 10:57:06;;;;;;;4.33;2.30;;;27.30;64.60;;;;;;5045983;28;20412;-78
2022/06/16 10:59:37;;;;;;;2.80;1.70;;;27.20;63.70;;;;;;5047625;28;20794;-75
2022/06/16 11:02:22;;;;;;;3.10;1.87;;;27.30;63.50;;;;;;5047242;28;20412;-77
2022/06/16 11:04:56;;;;;;;3.30;1.90;;;27.20;65.30;;;;;;5060518;28;20509;-77
2022/06/16 11:07:23;;;;;;;5.53;2.93;;;27.10;63.10;;;;;;5066171;28;20460;-75
2022/06/16 11:09:49;;;;;;;5.73;2.50;;;27.10;65.10;;;;;;5066423;28;20430;-79
2022/06/16 11:12:21;;;;;;;8.70;2.37;;;27.10;65.90;;;;;;5066032;28;20438;-77
2022/06/16 11:15:01;;;;;;;5.57;2.20;;;27.20;68.70;;;;;;5067475;28;20196;-79
2022/06/16 11:17:40;;;;;;;3.20;1.83;;;27.40;65.60;;;;;;5067158;28;20410;-78
2022/06/16 11:20:08;;;;;;;19.93;2.67;;;27.50;63.20;;;;;;5067354;28;20557;-77
2022/06/16 11:22:44;;;;;;;4.27;2.13;;;27.30;63.30;;;;;;5067275;28;20913;-79
2022/06/16 11:25:21;;;;;;;4.00;1.90;;;27.30;66.50;;;;;;5067154;28;20448;-78
2022/06/16 11:27:57;;;;;;;7.63;2.73;;;27.40;65.40;;;;;;5067276;28;20403;-78
2022/06/16 11:30:45;;;;;;;3.10;1.87;;;27.50;66.30;;;;;;5067319;28;20410;-77
2022/06/16 11:36:23;;;;;;;3.97;2.10;;;27.70;67.40;;;;;;5066746;28;20405;-78
2022/06/16 11:38:58;;;;;;;3.93;2.20;;;27.90;66.40;;;;;;5067058;28;20183;-77
2022/06/16 11:41:26;;;;;;;6.27;2.00;;;27.90;64.70;;;;;;5066776;28;20458;-79
2022/06/16 11:44:08;;;;;;;13.30;2.50;;;27.80;65.30;;;;;;5065647;28;20192;-78
2022/06/16 11:46:43;;;;;;;9.70;2.17;;;27.70;66.60;;;;;;5066358;28;20417;-78
2022/06/16 11:49:21;;;;;;;4.60;2.47;;;27.70;64.50;;;;;;5065376;28;20438;-78
2022/06/16 11:51:54;;;;;;;3.90;2.67;;;27.70;63.90;;;;;;5062205;28;20871;-78
2022/06/16 11:54:44;;;;;;;6.83;2.30;;;27.50;66.00;;;;;;5046845;28;20205;-78
2022/06/16 11:57:41;;;;;;;5.10;2.30;;;27.50;66.10;;;;;;5056603;28;20500;-77
2022/06/16 12:00:31;;;;;;;4.30;1.93;;;27.50;64.10;;;;;;5063307;28;20205;-78
2022/06/16 12:03:31;;;;;;;2.60;1.60;;;27.70;63.40;;;;;;5065301;28;20407;-77
2022/06/16 12:06:05;;;;;;;6.73;1.80;;;27.80;65.20;;;;;;5045076;28;21000;-77
2022/06/16 12:08:43;;;;;;;4.07;2.20;;;27.90;65.30;;;;;;5046567;28;20243;-77
2022/06/16 12:11:40;;;;;;;3.03;1.60;;;27.90;64.50;;;;;;5045507;28;20185;-78
2022/06/16 12:14:36;;;;;;;3.27;1.40;;;27.90;65.30;;;;;;5043094;28;20285;-79
2022/06/16 12:17:18;;;;;;;5.30;2.20;;;27.60;65.80;;;;;;5046389;28;20165;-78
2022/06/16 12:19:44;;;;;;;4.23;2.13;;;27.60;68.70;;;;;;5050531;28;20445;-78
2022/06/16 12:22:33;;;;;;;3.43;1.77;;;27.70;66.60;;;;;;5048539;28;20283;-78
2022/06/16 12:25:06;;;;;;;5.77;2.10;;;27.90;64.40;;;;;;5051053;28;20209;-78
2022/06/16 12:27:52;;;;;;;5.23;2.37;;;27.80;66.90;;;;;;5050625;28;20683;-78
2022/06/16 12:30:27;;;;;;;4.40;2.00;;;27.90;62.80;;;;;;5050208;28;20175;-77
2022/06/16 12:33:05;;;;;;;4.97;1.90;;;27.90;64.30;;;;;;5048248;28;20196;-78
2022/06/16 12:35:49;;;;;;;2.83;1.57;;;27.80;63.50;;;;;;5069218;28;20280;-78
2022/06/16 12:38:27;;;;;;;4.37;2.30;;;27.90;64.90;;;;;;5069843;28;20181;-78
2022/06/16 12:41:09;;;;;;;5.73;1.90;;;27.80;62.70;;;;;;5062959;28;20303;-79
2022/06/16 12:44:01;;;;;;;3.83;2.00;;;27.70;63.40;;;;;;5058215;28;20320;-78
2022/06/16 12:46:42;;;;;;;4.30;2.63;;;27.70;62.30;;;;;;5058760;28;20188;-79
2022/06/16 12:49:22;;;;;;;6.53;2.00;;;27.70;60.00;;;;;;5060195;28;20184;-81
2022/06/16 12:51:58;;;;;;;3.73;1.93;;;27.70;59.70;;;;;;5058685;28;20833;-78
2022/06/16 12:55:00;;;;;;;3.23;1.60;;;27.80;61.50;;;;;;5069493;28;20434;-80
2022/06/16 12:57:35;;;;;;;4.30;2.00;;;27.60;63.40;;;;;;5052959;28;20196;-79
2022/06/16 13:00:15;;;;;;;7.30;2.20;;;27.70;61.70;;;;;;5069846;28;20227;-78
2022/06/16 13:02:55;;;;;;;24.17;2.37;;;27.80;63.60;;;;;;5068208;28;20204;-78
2022/06/16 13:05:21;;;;;;;3.90;2.00;;;28.00;61.60;;;;;;5069676;28;20701;-76
2022/06/16 13:07:51;;;;;;;7.87;1.80;;;28.10;59.60;;;;;;5070170;28;20181;-78
2022/06/16 13:10:17;;;;;;;2.67;1.73;;;28.20;58.30;;;;;;5075895;28;20189;-79
2022/06/16 13:12:51;;;;;;;5.37;2.30;;;28.00;58.90;;;;;;5080648;28;20219;-79
2022/06/16 13:15:44;;;;;;;4.33;2.27;;;28.00;57.30;;;;;;5079850;28;20180;-78
2022/06/16 13:18:20;;;;;;;6.03;1.90;;;28.00;59.90;;;;;;5077534;28;20212;-79
2022/06/16 13:20:52;;;;;;;13.70;2.20;;;28.00;61.60;;;;;;5074745;28;20715;-78
2022/06/16 13:23:19;;;;;;;2.53;1.70;;;28.00;58.00;;;;;;5070847;28;20193;-78
2022/06/16 13:25:52;;;;;;;6.43;1.90;;;28.10;58.00;;;;;;5071185;28;20204;-79
2022/06/16 13:28:24;;;;;;;2.60;1.63;;;28.10;58.30;;;;;;5070519;28;20187;-79
2022/06/16 13:31:17;;;;;;;3.10;1.67;;;28.10;57.30;;;;;;5070012;28;20259;-78